sensor_id;sensor_type;location;lat;lon;timestamp;pressure;altitude;pressure_sealevel;temperature;humidity
40205;BME280;26963;42.666;23.366;2023-12-28T00:00:42;96033.09;;;6.17;57.21
40205;BME280;26963;42.666;23.366;2023-12-28T00:03:08;95994.72;;;6.13;57.70
40205;BME280;26963;42.666;23.366;2023-12-28T00:05:33;96035.72;;;6.46;55.59
40205;BME280;26963;42.666;23.366;2023-12-28T00:07:59;95991.59;;;5.75;56.35
40205;BME280;26963;42.666;23.366;2023-12-28T00:10:26;96005.00;;;5.68;59.46
40205;BME280;26963;42.666;23.366;2023-12-28T00:12:52;96038.34;;;5.88;59.24
40205;BME280;26963;42.666;23.366;2023-12-28T00:15:17;96047.34;;;5.87;59.44
40205;BME280;26963;42.666;23.366;2023-12-28T00:17:43;96014.09;;;5.84;59.30
40205;BME280;26963;42.666;23.366;2023-12-28T00:20:09;96042.66;;;6.18;58.09
40205;BME280;26963;42.666;23.366;2023-12-28T00:22:35;96053.88;;;6.20;57.09
40205;BME280;26963;42.666;23.366;2023-12-28T00:25:03;95988.16;;;5.51;56.19
40205;BME280;26963;42.666;23.366;2023-12-28T00:27:29;96037.28;;;5.89;58.70
40205;BME280;26963;42.666;23.366;2023-12-28T00:29:55;95997.06;;;5.57;59.35
40205;BME280;26963;42.666;23.366;2023-12-28T00:32:20;95963.03;;;5.42;58.71
40205;BME280;26963;42.666;23.366;2023-12-28T00:34:47;96055.16;;;6.17;57.97
40205;BME280;26963;42.666;23.366;2023-12-28T00:37:12;96054.91;;;6.19;57.46
40205;BME280;26963;42.666;23.366;2023-12-28T00:39:38;96058.50;;;6.13;57.39
40205;BME280;26963;42.666;23.366;2023-12-28T00:42:04;95968.00;;;5.50;57.38
40205;BME280;26963;42.666;23.366;2023-12-28T00:44:30;96049.53;;;6.02;57.43
40205;BME280;26963;42.666;23.366;2023-12-28T00:46:55;96057.09;;;6.22;56.97
40205;BME280;26963;42.666;23.366;2023-12-28T00:49:21;96038.41;;;6.17;56.33
40205;BME280;26963;42.666;23.366;2023-12-28T00:51:47;96006.56;;;5.81;56.15
40205;BME280;26963;42.666;23.366;2023-12-28T00:54:12;96071.88;;;6.18;56.78
40205;BME280;26963;42.666;23.366;2023-12-28T00:56:38;95996.81;;;5.58;56.85
40205;BME280;26963;42.666;23.366;2023-12-28T00:59:03;96070.88;;;6.07;57.58
40205;BME280;26963;42.666;23.366;2023-12-28T01:01:29;96080.44;;;6.20;57.09
40205;BME280;26963;42.666;23.366;2023-12-28T01:03:57;96075.81;;;6.27;56.83
40205;BME280;26963;42.666;23.366;2023-12-28T01:06:23;96057.47;;;5.90;57.15
40205;BME280;26963;42.666;23.366;2023-12-28T01:08:53;96058.06;;;5.92;58.11
40205;BME280;26963;42.666;23.366;2023-12-28T01:11:19;95985.38;;;5.69;56.71
40205;BME280;26963;42.666;23.366;2023-12-28T01:13:44;96076.53;;;6.40;56.42
40205;BME280;26963;42.666;23.366;2023-12-28T01:16:12;96070.69;;;6.38;56.28
40205;BME280;26963;42.666;23.366;2023-12-28T01:18:38;96073.44;;;6.43;55.84
40205;BME280;26963;42.666;23.366;2023-12-28T01:21:05;96068.78;;;6.50;55.98
40205;BME280;26963;42.666;23.366;2023-12-28T01:23:31;96059.44;;;6.47;55.29
40205;BME280;26963;42.666;23.366;2023-12-28T01:25:57;95944.13;;;5.79;54.85
40205;BME280;26963;42.666;23.366;2023-12-28T01:28:22;96050.72;;;6.52;54.72
40205;BME280;26963;42.666;23.366;2023-12-28T01:30:48;96046.06;;;6.59;54.83
40205;BME280;26963;42.666;23.366;2023-12-28T01:33:14;96005.25;;;6.36;53.98
40205;BME280;26963;42.666;23.366;2023-12-28T01:35:41;96049.41;;;6.66;54.42
40205;BME280;26963;42.666;23.366;2023-12-28T01:38:07;95990.44;;;6.41;54.12
40205;BME280;26963;42.666;23.366;2023-12-28T01:40:32;96046.41;;;6.80;53.77
40205;BME280;26963;42.666;23.366;2023-12-28T01:42:58;96060.47;;;6.92;53.68
40205;BME280;26963;42.666;23.366;2023-12-28T01:45:23;95968.75;;;6.32;53.93
40205;BME280;26963;42.666;23.366;2023-12-28T01:47:50;95857.63;;;5.54;53.68
40205;BME280;26963;42.666;23.366;2023-12-28T01:50:18;96040.47;;;6.73;53.87
40205;BME280;26963;42.666;23.366;2023-12-28T01:52:45;96011.75;;;6.58;53.47
40205;BME280;26963;42.666;23.366;2023-12-28T01:55:11;96060.97;;;6.89;52.56
40205;BME280;26963;42.666;23.366;2023-12-28T01:57:38;96046.41;;;6.80;52.27
40205;BME280;26963;42.666;23.366;2023-12-28T02:00:04;96019.66;;;6.52;52.22
40205;BME280;26963;42.666;23.366;2023-12-28T02:02:30;96037.16;;;6.65;52.71
40205;BME280;26963;42.666;23.366;2023-12-28T02:04:56;96053.91;;;6.66;52.87
40205;BME280;26963;42.666;23.366;2023-12-28T02:07:24;96017.69;;;6.48;53.50
40205;BME280;26963;42.666;23.366;2023-12-28T02:09:49;96055.59;;;6.72;53.11
40205;BME280;26963;42.666;23.366;2023-12-28T02:12:15;95925.75;;;5.89;53.64
40205;BME280;26963;42.666;23.366;2023-12-28T02:14:41;96036.56;;;6.63;52.38
40205;BME280;26963;42.666;23.366;2023-12-28T02:17:15;96035.44;;;6.59;52.75
40205;BME280;26963;42.666;23.366;2023-12-28T02:19:53;95958.72;;;6.05;52.18
40205;BME280;26963;42.666;23.366;2023-12-28T02:22:20;96011.06;;;6.33;52.47
40205;BME280;26963;42.666;23.366;2023-12-28T02:27:24;95964.84;;;6.06;52.68
40205;BME280;26963;42.666;23.366;2023-12-28T02:29:50;96027.66;;;6.41;52.79
40205;BME280;26963;42.666;23.366;2023-12-28T02:32:17;96020.78;;;6.28;53.47
40205;BME280;26963;42.666;23.366;2023-12-28T02:34:48;96027.97;;;6.27;53.25
40205;BME280;26963;42.666;23.366;2023-12-28T02:37:17;96044.56;;;6.34;52.62
40205;BME280;26963;42.666;23.366;2023-12-28T02:39:45;96033.72;;;6.24;53.11
40205;BME280;26963;42.666;23.366;2023-12-28T02:42:12;96004.91;;;6.16;52.29
40205;BME280;26963;42.666;23.366;2023-12-28T02:44:38;96034.91;;;6.28;52.33
40205;BME280;26963;42.666;23.366;2023-12-28T02:47:03;96041.25;;;6.27;53.01
40205;BME280;26963;42.666;23.366;2023-12-28T02:49:29;95854.66;;;5.10;52.68
40205;BME280;26963;42.666;23.366;2023-12-28T02:51:55;96017.66;;;6.02;53.00
40205;BME280;26963;42.666;23.366;2023-12-28T02:54:20;96035.63;;;6.12;53.65
40205;BME280;26963;42.666;23.366;2023-12-28T02:56:46;96000.56;;;5.86;53.26
40205;BME280;26963;42.666;23.366;2023-12-28T02:59:11;95972.19;;;5.75;53.72
40205;BME280;26963;42.666;23.366;2023-12-28T03:01:37;96049.81;;;6.17;53.00
40205;BME280;26963;42.666;23.366;2023-12-28T03:04:03;96015.44;;;5.99;53.24
40205;BME280;26963;42.666;23.366;2023-12-28T03:06:28;96018.31;;;6.09;53.82
40205;BME280;26963;42.666;23.366;2023-12-28T03:08:54;96012.44;;;6.07;53.75
40205;BME280;26963;42.666;23.366;2023-12-28T03:11:19;96021.09;;;6.02;54.45
40205;BME280;26963;42.666;23.366;2023-12-28T03:13:46;95948.88;;;5.65;54.67
40205;BME280;26963;42.666;23.366;2023-12-28T03:16:13;96003.63;;;6.07;53.61
40205;BME280;26963;42.666;23.366;2023-12-28T03:18:39;96003.63;;;6.07;53.37
40205;BME280;26963;42.666;23.366;2023-12-28T03:21:05;96027.19;;;6.15;54.16
40205;BME280;26963;42.666;23.366;2023-12-28T03:23:30;96025.00;;;6.12;54.45
40205;BME280;26963;42.666;23.366;2023-12-28T03:25:56;96017.53;;;5.97;54.72
40205;BME280;26963;42.666;23.366;2023-12-28T03:28:21;95991.59;;;5.75;55.37
40205;BME280;26963;42.666;23.366;2023-12-28T03:30:47;96003.50;;;5.72;56.20
40205;BME280;26963;42.666;23.366;2023-12-28T03:33:13;96011.34;;;5.67;56.57
40205;BME280;26963;42.666;23.366;2023-12-28T03:35:39;96014.94;;;5.61;57.50
40205;BME280;26963;42.666;23.366;2023-12-28T03:38:05;96027.44;;;5.49;57.58
40205;BME280;26963;42.666;23.366;2023-12-28T03:40:31;96047.75;;;5.55;57.48
40205;BME280;26963;42.666;23.366;2023-12-28T03:42:56;96033.88;;;5.53;57.60
40205;BME280;26963;42.666;23.366;2023-12-28T03:45:22;96048.09;;;5.59;56.88
40205;BME280;26963;42.666;23.366;2023-12-28T03:47:47;96037.13;;;5.55;56.65
40205;BME280;26963;42.666;23.366;2023-12-28T03:50:13;96039.53;;;5.57;56.17
40205;BME280;26963;42.666;23.366;2023-12-28T03:52:39;96027.53;;;5.54;55.48
40205;BME280;26963;42.666;23.366;2023-12-28T03:55:04;96067.78;;;5.75;54.95
40205;BME280;26963;42.666;23.366;2023-12-28T03:57:30;95879.38;;;4.51;54.79
40205;BME280;26963;42.666;23.366;2023-12-28T03:59:56;96065.03;;;5.69;55.16
40205;BME280;26963;42.666;23.366;2023-12-28T04:02:22;96009.19;;;5.41;55.44
40205;BME280;26963;42.666;23.366;2023-12-28T04:04:49;95987.97;;;5.29;55.69
40205;BME280;26963;42.666;23.366;2023-12-28T04:07:15;96015.09;;;5.43;55.59
40205;BME280;26963;42.666;23.366;2023-12-28T04:09:41;96030.97;;;5.54;55.20
40205;BME280;26963;42.666;23.366;2023-12-28T04:12:07;96067.56;;;5.76;55.78
40205;BME280;26963;42.666;23.366;2023-12-28T04:14:33;96058.09;;;5.68;55.77
40205;BME280;26963;42.666;23.366;2023-12-28T04:16:59;96040.47;;;5.50;55.78
40205;BME280;26963;42.666;23.366;2023-12-28T04:19:24;95859.31;;;4.31;55.67
40205;BME280;26963;42.666;23.366;2023-12-28T04:21:50;96015.09;;;5.31;56.21
40205;BME280;26963;42.666;23.366;2023-12-28T04:24:15;96064.22;;;5.57;55.99
40205;BME280;26963;42.666;23.366;2023-12-28T04:26:41;96011.28;;;5.15;56.03
40205;BME280;26963;42.666;23.366;2023-12-28T04:29:06;96038.50;;;5.46;55.78
40205;BME280;26963;42.666;23.366;2023-12-28T04:31:32;96058.81;;;5.52;55.81
40205;BME280;26963;42.666;23.366;2023-12-28T04:33:58;96053.97;;;5.49;55.85
40205;BME280;26963;42.666;23.366;2023-12-28T04:36:23;96041.63;;;5.43;55.63
40205;BME280;26963;42.666;23.366;2023-12-28T04:38:49;96055.13;;;5.53;55.60
40205;BME280;26963;42.666;23.366;2023-12-28T04:41:15;96061.91;;;5.61;55.70
40205;BME280;26963;42.666;23.366;2023-12-28T04:43:40;96044.63;;;5.46;56.13
40205;BME280;26963;42.666;23.366;2023-12-28T04:46:06;96059.94;;;5.56;56.22
40205;BME280;26963;42.666;23.366;2023-12-28T04:48:32;96034.09;;;5.39;56.39
40205;BME280;26963;42.666;23.366;2023-12-28T04:50:58;95995.47;;;5.20;56.04
40205;BME280;26963;42.666;23.366;2023-12-28T04:53:23;96025.47;;;5.44;56.04
40205;BME280;26963;42.666;23.366;2023-12-28T04:55:49;95989.69;;;5.23;55.95
40205;BME280;26963;42.666;23.366;2023-12-28T04:58:14;96051.06;;;5.62;56.01
40205;BME280;26963;42.666;23.366;2023-12-28T05:00:40;96049.00;;;5.64;55.76
40205;BME280;26963;42.666;23.366;2023-12-28T05:03:06;96047.25;;;5.58;55.42
40205;BME280;26963;42.666;23.366;2023-12-28T05:05:32;96055.91;;;5.65;55.08
40205;BME280;26963;42.666;23.366;2023-12-28T05:07:57;96042.44;;;5.55;54.72
40205;BME280;26963;42.666;23.366;2023-12-28T05:10:23;96064.69;;;5.78;54.47
40205;BME280;26963;42.666;23.366;2023-12-28T05:12:48;95923.06;;;4.84;54.46
40205;BME280;26963;42.666;23.366;2023-12-28T05:15:14;96054.41;;;5.69;54.66
40205;BME280;26963;42.666;23.366;2023-12-28T05:17:40;96053.25;;;5.65;54.90
40205;BME280;26963;42.666;23.366;2023-12-28T05:20:07;96050.50;;;5.60;54.90
40205;BME280;26963;42.666;23.366;2023-12-28T05:22:32;95996.19;;;5.27;55.29
40205;BME280;26963;42.666;23.366;2023-12-28T05:24:58;96060.66;;;5.63;55.75
40205;BME280;26963;42.666;23.366;2023-12-28T05:27:24;95978.50;;;5.09;55.14
40205;BME280;26963;42.666;23.366;2023-12-28T05:29:49;96067.81;;;5.51;56.29
40205;BME280;26963;42.666;23.366;2023-12-28T05:32:15;96026.16;;;5.16;56.32
40205;BME280;26963;42.666;23.366;2023-12-28T05:34:40;96059.50;;;5.35;56.77
40205;BME280;26963;42.666;23.366;2023-12-28T05:37:07;96074.28;;;5.31;56.44
40205;BME280;26963;42.666;23.366;2023-12-28T05:39:32;95922.91;;;4.31;56.71
40205;BME280;26963;42.666;23.366;2023-12-28T05:41:58;96069.53;;;5.21;56.63
40205;BME280;26963;42.666;23.366;2023-12-28T05:44:23;96004.81;;;4.75;57.06
40205;BME280;26963;42.666;23.366;2023-12-28T05:46:49;96090.66;;;5.28;56.49
40205;BME280;26963;42.666;23.366;2023-12-28T05:49:14;96074.75;;;5.28;56.33
40205;BME280;26963;42.666;23.366;2023-12-28T05:51:40;96077.97;;;5.30;56.27
40205;BME280;26963;42.666;23.366;2023-12-28T05:54:07;96031.56;;;4.97;56.03
40205;BME280;26963;42.666;23.366;2023-12-28T05:56:32;96065.84;;;5.22;55.15
40205;BME280;26963;42.666;23.366;2023-12-28T05:58:58;96090.78;;;5.33;56.05
40205;BME280;26963;42.666;23.366;2023-12-28T06:01:24;96006.75;;;4.80;56.74
40205;BME280;26963;42.666;23.366;2023-12-28T06:03:50;96100.34;;;5.34;56.22
40205;BME280;26963;42.666;23.366;2023-12-28T06:06:18;96089.72;;;5.34;55.82
40205;BME280;26963;42.666;23.366;2023-12-28T06:08:44;96080.84;;;5.29;56.11
40205;BME280;26963;42.666;23.366;2023-12-28T06:11:09;96060.44;;;5.17;55.80
40205;BME280;26963;42.666;23.366;2023-12-28T06:13:35;96090.91;;;5.38;56.36
40205;BME280;26963;42.666;23.366;2023-12-28T06:16:01;96013.91;;;4.91;55.48
40205;BME280;26963;42.666;23.366;2023-12-28T06:18:26;96103.25;;;5.45;55.40
40205;BME280;26963;42.666;23.366;2023-12-28T06:20:52;96100.13;;;5.60;55.33
40205;BME280;26963;42.666;23.366;2023-12-28T06:23:17;96080.25;;;5.62;55.33
40205;BME280;26963;42.666;23.366;2023-12-28T06:25:43;96085.00;;;5.72;55.58
40205;BME280;26963;42.666;23.366;2023-12-28T06:28:09;96011.97;;;5.34;55.49
40205;BME280;26963;42.666;23.366;2023-12-28T06:30:34;96068.69;;;5.92;55.24
40205;BME280;26963;42.666;23.366;2023-12-28T06:33:00;96096.47;;;6.25;55.02
40205;BME280;26963;42.666;23.366;2023-12-28T06:35:26;96098.53;;;6.35;54.14
40205;BME280;26963;42.666;23.366;2023-12-28T06:37:52;96098.03;;;6.50;53.16
40205;BME280;26963;42.666;23.366;2023-12-28T06:40:17;96105.56;;;6.70;53.03
40205;BME280;26963;42.666;23.366;2023-12-28T06:42:43;96080.13;;;6.74;52.19
40205;BME280;26963;42.666;23.366;2023-12-28T06:45:09;96044.16;;;6.72;51.82
40205;BME280;26963;42.666;23.366;2023-12-28T06:47:35;96103.41;;;7.30;50.37
40205;BME280;26963;42.666;23.366;2023-12-28T06:50:01;96046.44;;;7.14;50.25
40205;BME280;26963;42.666;23.366;2023-12-28T06:52:26;96089.31;;;7.68;49.99
40205;BME280;26963;42.666;23.366;2023-12-28T06:54:52;96118.56;;;8.03;49.36
40205;BME280;26963;42.666;23.366;2023-12-28T06:57:18;96115.22;;;8.12;49.17
40205;BME280;26963;42.666;23.366;2023-12-28T06:59:44;96103.38;;;8.25;49.02
40205;BME280;26963;42.666;23.366;2023-12-28T07:02:10;96097.06;;;8.31;49.07
40205;BME280;26963;42.666;23.366;2023-12-28T07:04:35;96109.03;;;8.51;49.01
40205;BME280;26963;42.666;23.366;2023-12-28T07:07:01;96008.84;;;8.11;48.26
40205;BME280;26963;42.666;23.366;2023-12-28T07:09:27;96044.47;;;8.49;47.74
40205;BME280;26963;42.666;23.366;2023-12-28T07:11:53;96008.13;;;8.43;47.27
40205;BME280;26963;42.666;23.366;2023-12-28T07:14:18;96095.22;;;9.09;46.94
40205;BME280;26963;42.666;23.366;2023-12-28T07:16:44;96026.31;;;8.73;46.43
40205;BME280;26963;42.666;23.366;2023-12-28T07:19:10;95994.91;;;8.53;46.71
40205;BME280;26963;42.666;23.366;2023-12-28T07:21:36;96113.53;;;9.27;46.24
40205;BME280;26963;42.666;23.366;2023-12-28T07:24:03;96090.19;;;9.12;46.41
40205;BME280;26963;42.666;23.366;2023-12-28T07:26:29;96097.25;;;9.29;46.24
40205;BME280;26963;42.666;23.366;2023-12-28T07:28:54;96037.19;;;8.99;46.29
40205;BME280;26963;42.666;23.366;2023-12-28T07:31:27;96002.06;;;8.80;46.22
40205;BME280;26963;42.666;23.366;2023-12-28T07:33:52;96108.94;;;9.55;46.05
40205;BME280;26963;42.666;23.366;2023-12-28T07:36:19;96083.50;;;9.48;45.75
40205;BME280;26963;42.666;23.366;2023-12-28T07:38:44;96087.63;;;9.66;45.43
40205;BME280;26963;42.666;23.366;2023-12-28T07:41:10;96115.56;;;9.90;45.37
40205;BME280;26963;42.666;23.366;2023-12-28T07:43:36;96083.16;;;9.82;44.95
40205;BME280;26963;42.666;23.366;2023-12-28T07:46:02;96066.03;;;9.72;44.99
40205;BME280;26963;42.666;23.366;2023-12-28T07:48:27;96076.03;;;9.92;44.76
40205;BME280;26963;42.666;23.366;2023-12-28T07:50:56;96115.16;;;10.14;44.62
40205;BME280;26963;42.666;23.366;2023-12-28T07:53:22;96054.00;;;9.75;44.64
40205;BME280;26963;42.666;23.366;2023-12-28T07:55:48;96101.47;;;10.00;44.67
40205;BME280;26963;42.666;23.366;2023-12-28T07:58:14;96118.53;;;9.94;45.20
40205;BME280;26963;42.666;23.366;2023-12-28T08:00:40;96086.75;;;9.55;45.85
40205;BME280;26963;42.666;23.366;2023-12-28T08:03:06;96098.50;;;9.54;46.50
40205;BME280;26963;42.666;23.366;2023-12-28T08:05:32;96121.34;;;9.72;46.76
40205;BME280;26963;42.666;23.366;2023-12-28T08:07:57;96059.72;;;9.51;46.03
40205;BME280;26963;42.666;23.366;2023-12-28T08:10:23;96114.38;;;10.14;45.95
40205;BME280;26963;42.666;23.366;2023-12-28T08:12:48;96077.50;;;10.26;45.21
40205;BME280;26963;42.666;23.366;2023-12-28T08:15:14;96008.66;;;9.95;44.83
40205;BME280;26963;42.666;23.366;2023-12-28T08:17:40;96100.13;;;10.61;44.91
40205;BME280;26963;42.666;23.366;2023-12-28T08:20:06;96052.13;;;10.28;45.22
40205;BME280;26963;42.666;23.366;2023-12-28T08:22:32;96079.22;;;10.42;44.95
40205;BME280;26963;42.666;23.366;2023-12-28T08:24:58;96103.88;;;10.65;44.99
40205;BME280;26963;42.666;23.366;2023-12-28T08:27:23;96017.28;;;10.18;45.08
40205;BME280;26963;42.666;23.366;2023-12-28T08:29:49;95998.81;;;10.01;45.03
40205;BME280;26963;42.666;23.366;2023-12-28T08:32:15;96056.03;;;10.05;45.79
40205;BME280;26963;42.666;23.366;2023-12-28T08:34:41;96070.88;;;10.34;46.03
40205;BME280;26963;42.666;23.366;2023-12-28T08:37:07;96039.81;;;10.27;45.45
40205;BME280;26963;42.666;23.366;2023-12-28T08:39:33;96069.91;;;10.60;44.79
40205;BME280;26963;42.666;23.366;2023-12-28T08:41:58;96091.84;;;10.68;45.02
40205;BME280;26963;42.666;23.366;2023-12-28T08:44:24;96079.56;;;10.67;45.12
40205;BME280;26963;42.666;23.366;2023-12-28T08:46:49;96083.59;;;10.74;45.14
40205;BME280;26963;42.666;23.366;2023-12-28T08:49:15;96086.03;;;10.97;45.07
40205;BME280;26963;42.666;23.366;2023-12-28T08:51:41;95930.66;;;10.19;44.63
40205;BME280;26963;42.666;23.366;2023-12-28T08:54:08;96072.91;;;11.21;44.61
40205;BME280;26963;42.666;23.366;2023-12-28T08:56:35;96006.25;;;10.88;44.47
40205;BME280;26963;42.666;23.366;2023-12-28T08:59:01;96020.69;;;10.98;44.59
40205;BME280;26963;42.666;23.366;2023-12-28T09:01:26;95966.59;;;10.85;44.29
40205;BME280;26963;42.666;23.366;2023-12-28T09:03:53;96054.44;;;11.55;44.20
40205;BME280;26963;42.666;23.366;2023-12-28T09:06:22;95996.56;;;11.34;43.77
40205;BME280;26963;42.666;23.366;2023-12-28T09:08:49;96056.50;;;11.84;43.53
40205;BME280;26963;42.666;23.366;2023-12-28T09:11:19;96051.66;;;12.02;43.11
40205;BME280;26963;42.666;23.366;2023-12-28T09:13:45;96004.53;;;11.65;43.17
40205;BME280;26963;42.666;23.366;2023-12-28T09:16:12;96049.50;;;11.94;43.32
40205;BME280;26963;42.666;23.366;2023-12-28T09:18:38;96034.22;;;11.99;43.19
40205;BME280;26963;42.666;23.366;2023-12-28T09:21:05;96025.31;;;12.14;43.21
40205;BME280;26963;42.666;23.366;2023-12-28T09:23:32;96033.34;;;12.19;43.09
40205;BME280;26963;42.666;23.366;2023-12-28T09:25:59;96014.28;;;12.21;42.86
40205;BME280;26963;42.666;23.366;2023-12-28T09:28:25;96026.34;;;12.29;42.93
40205;BME280;26963;42.666;23.366;2023-12-28T09:30:51;96004.63;;;12.25;43.04
40205;BME280;26963;42.666;23.366;2023-12-28T09:33:17;96027.59;;;12.47;42.87
40205;BME280;26963;42.666;23.366;2023-12-28T09:35:42;96018.72;;;12.46;43.10
40205;BME280;26963;42.666;23.366;2023-12-28T09:38:08;95994.66;;;12.70;42.42
40205;BME280;26963;42.666;23.366;2023-12-28T09:40:37;96000.38;;;12.98;41.98
40205;BME280;26963;42.666;23.366;2023-12-28T09:45:49;96001.50;;;13.27;41.26
40205;BME280;26963;42.666;23.366;2023-12-28T09:48:20;95988.88;;;13.57;40.67
40205;BME280;26963;42.666;23.366;2023-12-28T09:50:50;95913.13;;;12.91;40.77
40205;BME280;26963;42.666;23.366;2023-12-28T09:53:16;95967.53;;;13.36;40.93
40205;BME280;26963;42.666;23.366;2023-12-28T09:55:42;95957.75;;;13.50;40.68
40205;BME280;26963;42.666;23.366;2023-12-28T09:58:09;95966.41;;;13.91;39.88
40205;BME280;26963;42.666;23.366;2023-12-28T10:00:35;95957.94;;;13.83;39.80
40205;BME280;26963;42.666;23.366;2023-12-28T10:03:01;95936.56;;;13.68;39.93
40205;BME280;26963;42.666;23.366;2023-12-28T10:05:28;95958.72;;;13.84;39.85
40205;BME280;26963;42.666;23.366;2023-12-28T10:07:55;95953.88;;;13.62;40.33
40205;BME280;26963;42.666;23.366;2023-12-28T10:10:22;95939.66;;;13.56;40.45
40205;BME280;26963;42.666;23.366;2023-12-28T10:12:48;95960.03;;;13.62;40.85
40205;BME280;26963;42.666;23.366;2023-12-28T10:15:14;95957.28;;;13.67;40.83
40205;BME280;26963;42.666;23.366;2023-12-28T10:17:40;95957.69;;;13.80;40.83
40205;BME280;26963;42.666;23.366;2023-12-28T10:20:06;95923.63;;;13.70;40.43
40205;BME280;26963;42.666;23.366;2023-12-28T10:22:36;95929.88;;;13.41;41.08
40205;BME280;26963;42.666;23.366;2023-12-28T10:25:03;95917.09;;;13.28;41.21
40205;BME280;26963;42.666;23.366;2023-12-28T10:27:29;95938.13;;;13.20;42.03
40205;BME280;26963;42.666;23.366;2023-12-28T10:29:55;95922.91;;;13.35;41.59
40205;BME280;26963;42.666;23.366;2023-12-28T10:32:24;95914.38;;;13.57;40.97
40205;BME280;26963;42.666;23.366;2023-12-28T10:34:53;95920.44;;;13.68;40.80
40205;BME280;26963;42.666;23.366;2023-12-28T10:37:20;95914.28;;;13.43;41.61
40205;BME280;26963;42.666;23.366;2023-12-28T10:39:47;95900.41;;;13.55;41.50
40205;BME280;26963;42.666;23.366;2023-12-28T10:42:31;95890.28;;;13.71;41.18
40205;BME280;26963;42.666;23.366;2023-12-28T10:45:16;95874.78;;;13.63;40.81
40205;BME280;26963;42.666;23.366;2023-12-28T10:47:54;95868.50;;;13.48;41.01
40205;BME280;26963;42.666;23.366;2023-12-28T10:50:22;95881.16;;;13.18;42.15
40205;BME280;26963;42.666;23.366;2023-12-28T10:52:55;95876.50;;;13.05;42.91
40205;BME280;26963;42.666;23.366;2023-12-28T10:55:40;95867.34;;;13.06;42.91
40205;BME280;26963;42.666;23.366;2023-12-28T10:58:12;95854.41;;;13.08;42.77
40205;BME280;26963;42.666;23.366;2023-12-28T11:00:56;95862.06;;;12.96;43.19
40205;BME280;26963;42.666;23.366;2023-12-28T11:03:30;95776.56;;;12.54;42.93
40205;BME280;26963;42.666;23.366;2023-12-28T11:06:00;95866.72;;;13.14;42.98
40205;BME280;26963;42.666;23.366;2023-12-28T11:08:28;95854.28;;;13.18;42.77
40205;BME280;26963;42.666;23.366;2023-12-28T11:10:55;95793.31;;;12.95;42.70
40205;BME280;26963;42.666;23.366;2023-12-28T11:13:23;95840.16;;;13.37;42.44
40205;BME280;26963;42.666;23.366;2023-12-28T11:15:48;95832.84;;;13.43;42.37
40205;BME280;26963;42.666;23.366;2023-12-28T11:18:16;95838.31;;;13.57;42.26
40205;BME280;26963;42.666;23.366;2023-12-28T11:20:43;95804.00;;;13.48;41.72
40205;BME280;26963;42.666;23.366;2023-12-28T11:23:10;95828.44;;;13.71;41.73
40205;BME280;26963;42.666;23.366;2023-12-28T11:25:37;95820.81;;;13.78;41.57
40205;BME280;26963;42.666;23.366;2023-12-28T11:28:11;95804.22;;;13.71;41.72
40205;BME280;26963;42.666;23.366;2023-12-28T11:30:38;95828.13;;;13.92;41.62
40205;BME280;26963;42.666;23.366;2023-12-28T11:33:06;95795.84;;;13.92;41.40
40205;BME280;26963;42.666;23.366;2023-12-28T11:35:39;95799.63;;;13.91;41.57
40205;BME280;26963;42.666;23.366;2023-12-28T11:38:06;95795.28;;;13.95;41.60
40205;BME280;26963;42.666;23.366;2023-12-28T11:40:41;95726.03;;;13.48;41.43
40205;BME280;26963;42.666;23.366;2023-12-28T11:43:19;95795.28;;;13.95;41.60
40205;BME280;26963;42.666;23.366;2023-12-28T11:45:54;95792.09;;;13.93;41.80
40205;BME280;26963;42.666;23.366;2023-12-28T11:48:27;95791.44;;;14.01;41.62
40205;BME280;26963;42.666;23.366;2023-12-28T11:50:58;95788.75;;;14.01;41.18
40205;BME280;26963;42.666;23.366;2023-12-28T11:53:25;95791.75;;;14.13;41.39
40205;BME280;26963;42.666;23.366;2023-12-28T11:55:51;95740.97;;;13.93;40.87
40205;BME280;26963;42.666;23.366;2023-12-28T11:58:20;95778.44;;;14.22;40.97
40205;BME280;26963;42.666;23.366;2023-12-28T12:00:47;95781.06;;;14.41;40.72
40205;BME280;26963;42.666;23.366;2023-12-28T12:03:13;95705.41;;;13.96;40.50
40205;BME280;26963;42.666;23.366;2023-12-28T12:05:58;95767.66;;;14.22;40.75
40205;BME280;26963;42.666;23.366;2023-12-28T12:08:24;95724.78;;;13.79;40.95
40205;BME280;26963;42.666;23.366;2023-12-28T12:11:00;95758.47;;;14.09;41.08
40205;BME280;26963;42.666;23.366;2023-12-28T12:13:27;95728.53;;;13.97;41.10
40205;BME280;26963;42.666;23.366;2023-12-28T12:15:53;95708.16;;;13.91;41.00
40205;BME280;26963;42.666;23.366;2023-12-28T12:18:19;95774.69;;;14.37;40.89
40205;BME280;26963;42.666;23.366;2023-12-28T12:20:45;95761.97;;;14.43;40.65
40205;BME280;26963;42.666;23.366;2023-12-28T12:23:10;95717.00;;;14.10;40.52
40205;BME280;26963;42.666;23.366;2023-12-28T12:25:38;95740.97;;;14.26;40.71
40205;BME280;26963;42.666;23.366;2023-12-28T12:28:06;95752.06;;;14.38;40.62
40205;BME280;26963;42.666;23.366;2023-12-28T12:30:32;95749.38;;;14.38;40.38
40205;BME280;26963;42.666;23.366;2023-12-28T12:32:57;95737.06;;;14.18;40.55
40205;BME280;26963;42.666;23.366;2023-12-28T12:35:24;95753.91;;;14.24;40.90
40205;BME280;26963;42.666;23.366;2023-12-28T12:37:50;95755.13;;;14.17;40.62
40205;BME280;26963;42.666;23.366;2023-12-28T12:40:17;95692.13;;;13.85;40.57
40205;BME280;26963;42.666;23.366;2023-12-28T12:42:54;95746.75;;;14.19;40.57
40205;BME280;26963;42.666;23.366;2023-12-28T12:45:20;95705.00;;;13.89;40.19
40205;BME280;26963;42.666;23.366;2023-12-28T12:47:51;95762.41;;;14.31;39.88
40205;BME280;26963;42.666;23.366;2023-12-28T12:50:19;95758.72;;;14.27;39.81
40205;BME280;26963;42.666;23.366;2023-12-28T12:52:46;95739.31;;;14.11;39.84
40205;BME280;26963;42.666;23.366;2023-12-28T12:55:13;95725.34;;;13.95;40.45
40205;BME280;26963;42.666;23.366;2023-12-28T12:57:40;95752.13;;;14.19;40.20
40205;BME280;26963;42.666;23.366;2023-12-28T13:00:08;95684.22;;;13.75;40.25